createdAt,value
2018-07-13T00:00:37.809Z,985.61
2018-07-13T00:01:37.762Z,985.60
2018-07-13T00:02:37.730Z,985.60
2018-07-13T00:03:37.695Z,985.63
2018-07-13T00:04:37.652Z,985.60
2018-07-13T00:05:37.611Z,985.62
2018-07-13T00:06:37.612Z,985.60
2018-07-13T00:07:37.575Z,985.57
2018-07-13T00:08:37.498Z,985.54
2018-07-13T00:09:37.473Z,985.60
2018-07-13T00:10:37.468Z,985.56
2018-07-13T00:11:37.390Z,985.56
2018-07-13T00:12:37.371Z,985.57
2018-07-13T00:13:37.339Z,985.60
2018-07-13T00:14:37.321Z,985.55
2018-07-13T00:15:37.282Z,985.58
2018-07-13T00:16:37.218Z,985.57
2018-07-13T00:17:37.178Z,985.58
2018-07-13T00:18:37.143Z,985.53
2018-07-13T00:19:37.117Z,985.53
2018-07-13T00:20:37.070Z,985.52
2018-07-13T00:21:37.046Z,985.51
2018-07-13T00:22:37.001Z,985.55
2018-07-13T00:23:36.967Z,985.53
2018-07-13T00:24:36.944Z,985.54
2018-07-13T00:25:36.907Z,985.52
2018-07-13T00:26:36.856Z,985.55
2018-07-13T00:27:36.820Z,985.55
2018-07-13T00:28:36.809Z,985.51
2018-07-13T00:29:36.767Z,985.57
2018-07-13T00:30:36.715Z,985.53
2018-07-13T00:31:36.676Z,985.48
2018-07-13T00:32:36.660Z,985.52
2018-07-13T00:33:36.620Z,985.55
2018-07-13T00:34:36.580Z,985.54
2018-07-13T00:35:36.539Z,985.58
2018-07-13T00:36:36.503Z,985.58
2018-07-13T00:37:36.475Z,985.58
2018-07-13T00:38:36.423Z,985.56
2018-07-13T00:39:36.414Z,985.56
2018-07-13T00:40:36.372Z,985.58
2018-07-13T00:41:36.328Z,985.58
2018-07-13T00:42:36.279Z,985.61
2018-07-13T00:43:36.242Z,985.63
2018-07-13T00:44:36.208Z,985.63
2018-07-13T00:45:36.172Z,985.67
2018-07-13T00:46:36.153Z,985.67
2018-07-13T00:47:36.095Z,985.64
2018-07-13T00:48:36.063Z,985.65
2018-07-13T00:49:36.045Z,985.72
2018-07-13T00:50:35.996Z,985.70
2018-07-13T00:51:35.951Z,985.70
2018-07-13T00:52:35.918Z,985.69
2018-07-13T00:53:35.899Z,985.70
2018-07-13T00:54:35.845Z,985.67
2018-07-13T00:55:35.833Z,985.68
2018-07-13T00:56:35.773Z,985.63
2018-07-13T00:57:35.742Z,985.66
2018-07-13T00:58:35.705Z,985.64
2018-07-13T00:59:35.680Z,985.63
2018-07-13T01:00:35.644Z,985.63
2018-07-13T01:01:35.608Z,985.60
2018-07-13T01:02:35.576Z,985.56
2018-07-13T01:03:35.528Z,985.58
2018-07-13T01:04:35.482Z,985.58
2018-07-13T01:05:35.475Z,985.62
2018-07-13T01:06:35.432Z,985.59
2018-07-13T01:07:35.394Z,985.61
2018-07-13T01:08:35.353Z,985.60
2018-07-13T01:09:35.312Z,985.69
2018-07-13T01:10:35.317Z,985.72
2018-07-13T01:11:35.240Z,985.66
2018-07-13T01:12:35.214Z,985.64
2018-07-13T01:13:35.165Z,985.60
2018-07-13T01:14:35.124Z,985.67
2018-07-13T01:15:35.099Z,985.68
2018-07-13T01:16:35.058Z,985.73
2018-07-13T01:17:35.012Z,985.73
2018-07-13T01:18:34.990Z,985.75
2018-07-13T01:19:34.952Z,985.76
2018-07-13T01:20:34.921Z,985.78
2018-07-13T01:21:34.882Z,985.79
2018-07-13T01:22:34.839Z,985.81
2018-07-13T01:23:34.798Z,985.78
2018-07-13T01:24:34.763Z,985.83
2018-07-13T01:25:34.737Z,985.79
2018-07-13T01:26:34.687Z,985.76
2018-07-13T01:27:34.669Z,985.75
2018-07-13T01:28:34.615Z,985.75
2018-07-13T01:29:34.581Z,985.76
2018-07-13T01:30:34.546Z,985.71
2018-07-13T01:31:34.521Z,985.75
2018-07-13T01:32:34.477Z,985.77
2018-07-13T01:33:34.449Z,985.77
2018-07-13T01:34:34.406Z,985.82
2018-07-13T01:35:34.382Z,985.75
2018-07-13T01:36:34.390Z,985.80
2018-07-13T01:37:34.791Z,985.74
2018-07-13T01:38:34.285Z,985.75
2018-07-13T01:39:34.238Z,985.73
2018-07-13T01:40:34.181Z,985.72
2018-07-13T01:41:34.150Z,985.69
2018-07-13T01:42:34.113Z,985.69
2018-07-13T01:43:34.077Z,985.71
2018-07-13T01:44:34.040Z,985.69
2018-07-13T01:45:33.992Z,985.72
2018-07-13T01:46:33.986Z,985.72
2018-07-13T01:47:33.921Z,985.76
2018-07-13T01:48:33.908Z,985.75
2018-07-13T01:49:33.868Z,985.73
2018-07-13T01:50:33.848Z,985.73
2018-07-13T01:51:33.790Z,985.77
2018-07-13T01:52:33.758Z,985.73
2018-07-13T01:53:33.716Z,985.74
2018-07-13T01:54:33.678Z,985.77
2018-07-13T01:55:33.705Z,985.77
2018-07-13T01:56:33.607Z,985.73
2018-07-13T01:57:33.578Z,985.78
2018-07-13T01:58:33.545Z,985.74
2018-07-13T01:59:33.483Z,985.75
2018-07-13T02:00:33.452Z,985.75
2018-07-13T02:01:33.403Z,985.80
2018-07-13T02:02:33.391Z,985.72
2018-07-13T02:03:33.366Z,985.79
2018-07-13T02:04:33.306Z,985.80
2018-07-13T02:05:33.281Z,985.80
2018-07-13T02:06:33.239Z,985.77
2018-07-13T02:07:33.199Z,985.78
2018-07-13T02:08:33.173Z,985.74
2018-07-13T02:09:33.132Z,985.77
2018-07-13T02:10:33.099Z,985.79
2018-07-13T02:11:33.036Z,985.79
2018-07-13T02:12:33.013Z,985.84
2018-07-13T02:13:32.977Z,985.84
2018-07-13T02:14:32.940Z,985.86
2018-07-13T02:15:32.903Z,985.88
2018-07-13T02:16:32.891Z,985.86
2018-07-13T02:17:32.830Z,985.89
2018-07-13T02:18:32.782Z,985.86
2018-07-13T02:19:32.786Z,985.82
2018-07-13T02:20:32.723Z,985.87
2018-07-13T02:21:32.691Z,985.86
2018-07-13T02:22:32.642Z,985.88
2018-07-13T02:23:32.609Z,985.85
2018-07-13T02:24:32.593Z,985.92
2018-07-13T02:25:32.536Z,985.89
2018-07-13T02:26:33.589Z,985.91
2018-07-13T02:27:32.481Z,985.92
2018-07-13T02:28:32.427Z,985.90
2018-07-13T02:29:32.383Z,985.92
2018-07-13T02:30:32.373Z,985.89
2018-07-13T02:31:32.311Z,985.89
2018-07-13T02:32:32.269Z,985.94
2018-07-13T02:33:32.234Z,985.91
2018-07-13T02:34:32.247Z,985.94
2018-07-13T02:35:32.154Z,985.97
2018-07-13T02:36:32.129Z,985.88
2018-07-13T02:37:32.087Z,985.96
2018-07-13T02:38:32.067Z,985.97
2018-07-13T02:39:32.018Z,985.96
2018-07-13T02:40:31.978Z,986.00
2018-07-13T02:41:31.938Z,985.97
2018-07-13T02:42:31.913Z,986.03
2018-07-13T02:43:31.884Z,985.99
2018-07-13T02:44:31.836Z,986.03
2018-07-13T02:45:31.808Z,986.07
2018-07-13T02:46:31.781Z,986.06
2018-07-13T02:47:31.728Z,986.04
2018-07-13T02:48:31.674Z,986.06
2018-07-13T02:49:31.658Z,986.08
2018-07-13T02:50:31.612Z,986.05
2018-07-13T02:51:31.568Z,986.07
2018-07-13T02:52:31.563Z,986.06
2018-07-13T02:53:31.495Z,986.07
2018-07-13T02:54:31.452Z,986.07
2018-07-13T02:55:31.430Z,986.06
2018-07-13T02:56:31.405Z,986.07
2018-07-13T02:57:31.356Z,986.08
2018-07-13T02:58:31.302Z,986.10
2018-07-13T02:59:31.278Z,986.13
2018-07-13T03:00:31.236Z,986.14
2018-07-13T03:01:31.225Z,986.16
2018-07-13T03:02:31.173Z,986.17
2018-07-13T03:03:31.131Z,986.20
2018-07-13T03:04:31.098Z,986.19
2018-07-13T03:05:31.046Z,986.19
2018-07-13T03:06:31.034Z,986.19
2018-07-13T03:07:30.967Z,986.21
2018-07-13T03:08:30.932Z,986.21
2018-07-13T03:09:30.918Z,986.20
2018-07-13T03:10:30.859Z,986.23
2018-07-13T03:11:30.829Z,986.22
2018-07-13T03:12:30.791Z,986.19
2018-07-13T03:13:30.777Z,986.21
2018-07-13T03:14:30.717Z,986.23
2018-07-13T03:15:30.671Z,986.27
2018-07-13T03:16:30.637Z,986.26
2018-07-13T03:17:30.596Z,986.24
2018-07-13T03:18:30.570Z,986.23
2018-07-13T03:19:30.551Z,986.23
2018-07-13T03:20:30.495Z,986.23
2018-07-13T03:21:30.474Z,986.23
2018-07-13T03:22:30.408Z,986.25
2018-07-13T03:23:30.383Z,986.24
2018-07-13T03:24:30.337Z,986.28
2018-07-13T03:25:30.315Z,986.28
2018-07-13T03:26:30.292Z,986.27
2018-07-13T03:27:30.248Z,986.29
2018-07-13T03:28:30.185Z,986.34
2018-07-13T03:29:30.152Z,986.35
2018-07-13T03:30:30.203Z,986.36
2018-07-13T03:31:30.070Z,986.38
2018-07-13T03:32:30.043Z,986.39
2018-07-13T03:33:30.823Z,986.39
2018-07-13T03:34:29.961Z,986.40
2018-07-13T03:35:29.931Z,986.45
2018-07-13T03:36:29.905Z,986.46
2018-07-13T03:37:29.855Z,986.44
2018-07-13T03:38:29.833Z,986.43
2018-07-13T03:39:29.768Z,986.45
2018-07-13T03:40:29.739Z,986.46
2018-07-13T03:41:29.707Z,986.45
2018-07-13T03:42:29.658Z,986.53
2018-07-13T03:43:29.630Z,986.46
2018-07-13T03:44:29.591Z,986.49
2018-07-13T03:45:29.551Z,986.51
2018-07-13T03:46:29.623Z,986.52
2018-07-13T03:47:29.504Z,986.52
2018-07-13T03:48:29.504Z,986.57
2018-07-13T03:49:29.400Z,986.57
2018-07-13T03:50:29.359Z,986.60
2018-07-13T03:51:29.331Z,986.58
2018-07-13T03:52:29.290Z,986.57
2018-07-13T03:53:29.261Z,986.59
2018-07-13T03:54:29.252Z,986.60
2018-07-13T03:55:29.190Z,986.60
2018-07-13T03:56:29.156Z,986.59
2018-07-13T03:57:29.152Z,986.57
2018-07-13T03:58:29.077Z,986.62
2018-07-13T03:59:29.023Z,986.61
2018-07-13T04:00:28.983Z,986.61
2018-07-13T04:01:28.948Z,986.63
2018-07-13T04:02:28.911Z,986.61
2018-07-13T04:03:28.878Z,986.63
2018-07-13T04:04:28.886Z,986.62
2018-07-13T04:05:28.799Z,986.60
2018-07-13T04:06:28.894Z,986.60
2018-07-13T04:07:28.728Z,986.62
2018-07-13T04:08:28.763Z,986.63
2018-07-13T04:09:28.657Z,986.65
2018-07-13T04:10:28.629Z,986.70
2018-07-13T04:11:28.587Z,986.69
2018-07-13T04:12:28.580Z,986.69
2018-07-13T04:13:28.523Z,986.66
2018-07-13T04:14:28.482Z,986.65
2018-07-13T04:15:28.463Z,986.66
2018-07-13T04:16:28.406Z,986.64
2018-07-13T04:17:28.355Z,986.65
2018-07-13T04:18:28.328Z,986.64
2018-07-13T04:19:28.319Z,986.64
2018-07-13T04:20:28.316Z,986.65
2018-07-13T04:21:28.227Z,986.68
2018-07-13T04:22:28.247Z,986.67
2018-07-13T04:23:28.159Z,986.69
2018-07-13T04:24:28.123Z,986.66
2018-07-13T04:25:28.084Z,986.67
2018-07-13T04:26:28.058Z,986.62
2018-07-13T04:27:28.042Z,986.62
2018-07-13T04:28:27.988Z,986.65
2018-07-13T04:29:27.926Z,986.64
2018-07-13T04:30:27.892Z,986.65
2018-07-13T04:31:27.864Z,986.66
2018-07-13T04:32:27.819Z,986.62
2018-07-13T04:33:27.797Z,986.62
2018-07-13T04:34:27.751Z,986.65
2018-07-13T04:35:27.712Z,986.66
2018-07-13T04:36:27.722Z,986.67
2018-07-13T04:37:27.673Z,986.70
2018-07-13T04:38:27.613Z,986.65
2018-07-13T04:39:27.572Z,986.66
2018-07-13T04:40:27.551Z,986.67
2018-07-13T04:41:27.519Z,986.67
2018-07-13T04:42:27.495Z,986.70
2018-07-13T04:43:27.445Z,986.69
2018-07-13T04:44:27.418Z,986.67
2018-07-13T04:45:27.404Z,986.70
2018-07-13T04:46:27.333Z,986.68
2018-07-13T04:47:27.321Z,986.69
2018-07-13T04:48:27.328Z,986.68
2018-07-13T04:49:27.243Z,986.69
2018-07-13T04:50:27.248Z,986.70
2018-07-13T04:51:27.174Z,986.70
2018-07-13T04:52:27.229Z,986.69
2018-07-13T04:53:27.110Z,986.66
2018-07-13T04:54:27.085Z,986.64
2018-07-13T04:55:27.074Z,986.64
2018-07-13T04:56:27.054Z,986.63
2018-07-13T04:57:26.985Z,986.63
2018-07-13T04:58:26.955Z,986.66
2018-07-13T04:59:26.954Z,986.63
2018-07-13T05:00:26.935Z,986.65
2018-07-13T05:01:26.861Z,986.66
2018-07-13T05:02:26.825Z,986.66
2018-07-13T05:03:26.810Z,986.69
2018-07-13T05:04:26.780Z,986.68
2018-07-13T05:05:26.728Z,986.70
2018-07-13T05:06:26.705Z,986.71
2018-07-13T05:07:26.655Z,986.66
2018-07-13T05:08:27.357Z,986.69
2018-07-13T05:09:26.612Z,986.67
2018-07-13T05:10:26.582Z,986.70
2018-07-13T05:11:26.560Z,986.71
2018-07-13T05:12:26.517Z,986.69
2018-07-13T05:13:26.490Z,986.70
2018-07-13T05:14:26.467Z,986.70
2018-07-13T05:15:26.487Z,986.70
2018-07-13T05:16:26.393Z,986.70
2018-07-13T05:17:26.471Z,986.72
2018-07-13T05:18:26.342Z,986.70
2018-07-13T05:19:26.317Z,986.70
2018-07-13T05:20:26.288Z,986.72
2018-07-13T05:21:26.261Z,986.72
2018-07-13T05:22:26.230Z,986.74
2018-07-13T05:23:26.189Z,986.70
2018-07-13T05:24:26.161Z,986.71
2018-07-13T05:25:26.137Z,986.74
2018-07-13T05:26:26.147Z,986.76
2018-07-13T05:27:26.076Z,986.75
2018-07-13T05:28:26.057Z,986.75
2018-07-13T05:29:26.047Z,986.79
2018-07-13T05:30:25.999Z,986.78
2018-07-13T05:31:25.977Z,986.79
2018-07-13T05:32:25.950Z,986.80
2018-07-13T05:33:25.920Z,986.77
2018-07-13T05:34:25.934Z,986.80
2018-07-13T05:35:25.855Z,986.74
2018-07-13T05:36:25.855Z,986.73
2018-07-13T05:37:25.829Z,986.73
2018-07-13T05:38:25.861Z,986.74
2018-07-13T05:39:25.755Z,986.75
2018-07-13T05:40:25.751Z,986.74
2018-07-13T05:41:25.695Z,986.77
2018-07-13T05:42:25.694Z,986.72
2018-07-13T05:43:25.643Z,986.77
2018-07-13T05:44:25.688Z,986.77
2018-07-13T05:45:25.624Z,986.74
2018-07-13T05:46:25.565Z,986.76
2018-07-13T05:47:25.531Z,986.80
2018-07-13T05:48:25.508Z,986.76
2018-07-13T05:49:25.474Z,986.77
2018-07-13T05:50:25.450Z,986.76
2018-07-13T05:51:25.420Z,986.77
2018-07-13T05:52:25.389Z,986.76
2018-07-13T05:53:25.353Z,986.77
2018-07-13T05:54:25.311Z,986.75
2018-07-13T05:55:25.296Z,986.78
2018-07-13T05:56:25.275Z,986.75
2018-07-13T05:57:25.236Z,986.81
2018-07-13T05:58:25.197Z,986.78
2018-07-13T05:59:25.171Z,986.80
2018-07-13T06:00:25.183Z,986.82
2018-07-13T06:01:25.120Z,986.84
2018-07-13T06:02:25.130Z,986.82
2018-07-13T06:03:25.088Z,986.87
2018-07-13T06:04:25.048Z,986.84
2018-07-13T06:05:25.000Z,986.88
2018-07-13T06:06:25.043Z,986.85
2018-07-13T06:07:24.932Z,986.86
2018-07-13T06:08:24.908Z,986.90
2018-07-13T06:09:24.902Z,986.92
2018-07-13T06:10:24.847Z,986.91
2018-07-13T06:11:24.811Z,986.93
2018-07-13T06:12:24.803Z,986.97
2018-07-13T06:13:24.756Z,986.96
2018-07-13T06:14:24.736Z,986.98
2018-07-13T06:15:24.713Z,986.98
2018-07-13T06:16:24.668Z,987.01
2018-07-13T06:17:24.646Z,986.97
2018-07-13T06:18:24.609Z,987.02
2018-07-13T06:19:24.582Z,987.02
2018-07-13T06:20:24.554Z,987.04
2018-07-13T06:21:24.523Z,987.04
2018-07-13T06:22:24.495Z,987.07
2018-07-13T06:23:24.463Z,987.05
2018-07-13T06:24:24.452Z,987.06
2018-07-13T06:25:24.428Z,987.06
2018-07-13T06:26:24.360Z,987.05
2018-07-13T06:27:24.346Z,987.03
2018-07-13T06:28:24.325Z,987.04
2018-07-13T06:29:24.272Z,987.04
2018-07-13T06:30:24.258Z,987.03
2018-07-13T06:31:24.297Z,987.03
2018-07-13T06:32:24.187Z,987.04
2018-07-13T06:33:24.174Z,987.06
2018-07-13T06:34:24.127Z,987.08
2018-07-13T06:35:24.114Z,987.11
2018-07-13T06:36:24.065Z,987.10
2018-07-13T06:37:24.048Z,987.09
2018-07-13T06:38:24.018Z,987.09
2018-07-13T06:39:23.981Z,987.08
2018-07-13T06:40:23.978Z,987.08
2018-07-13T06:41:23.947Z,987.14
2018-07-13T06:42:23.934Z,987.12
2018-07-13T06:43:23.858Z,987.11
2018-07-13T06:44:23.826Z,987.11
2018-07-13T06:45:23.820Z,987.12
2018-07-13T06:46:23.788Z,987.15
2018-07-13T06:47:23.751Z,987.13
2018-07-13T06:48:23.721Z,987.12
2018-07-13T06:49:23.695Z,987.09
2018-07-13T06:50:23.742Z,987.09
2018-07-13T06:51:23.650Z,987.09
2018-07-13T06:52:23.603Z,987.13
2018-07-13T06:53:23.579Z,987.11
2018-07-13T06:54:23.559Z,987.11
2018-07-13T06:55:23.505Z,987.09
2018-07-13T06:56:23.481Z,987.11
2018-07-13T06:57:23.471Z,987.13
2018-07-13T06:58:23.421Z,987.12
2018-07-13T06:59:23.389Z,987.13
2018-07-13T07:00:23.367Z,987.16
2018-07-13T07:01:23.365Z,987.18
2018-07-13T07:02:23.322Z,987.13
2018-07-13T07:03:23.289Z,987.20
2018-07-13T07:04:23.283Z,987.18
2018-07-13T07:05:23.233Z,987.15
2018-07-13T07:06:23.198Z,987.17
2018-07-13T07:07:23.173Z,987.22
2018-07-13T07:08:23.154Z,987.24
2018-07-13T07:09:23.125Z,987.25
2018-07-13T07:10:23.108Z,987.21
2018-07-13T07:11:23.078Z,987.22
2018-07-13T07:12:23.041Z,987.21
2018-07-13T07:13:23.014Z,987.21
2018-07-13T07:14:22.995Z,987.21
2018-07-13T07:15:22.971Z,987.22
2018-07-13T07:16:22.946Z,987.22
2018-07-13T07:17:22.921Z,987.25
2018-07-13T07:18:22.893Z,987.22
2018-07-13T07:19:22.865Z,987.24
2018-07-13T07:20:22.836Z,987.25
2018-07-13T07:21:22.821Z,987.26
2018-07-13T07:22:22.808Z,987.26
2018-07-13T07:23:22.831Z,987.26
2018-07-13T07:24:22.750Z,987.27
2018-07-13T07:25:22.712Z,987.30
2018-07-13T07:26:22.695Z,987.27
2018-07-13T07:27:22.676Z,987.25
2018-07-13T07:28:22.652Z,987.26
2018-07-13T07:29:22.633Z,987.19
2018-07-13T07:30:22.604Z,987.19
2018-07-13T07:31:22.584Z,987.19
2018-07-13T07:32:22.615Z,987.19
2018-07-13T07:33:22.549Z,987.19
2018-07-13T07:34:22.525Z,987.22
2018-07-13T07:35:22.504Z,987.22
2018-07-13T07:36:22.463Z,987.17
2018-07-13T07:37:22.438Z,987.20
2018-07-13T07:38:22.442Z,987.19
2018-07-13T07:39:22.408Z,987.18
2018-07-13T07:40:22.391Z,987.17
2018-07-13T07:41:22.356Z,987.19
2018-07-13T07:42:22.334Z,987.18
2018-07-13T07:43:22.321Z,987.18
2018-07-13T07:44:22.301Z,987.17
2018-07-13T07:45:22.277Z,987.16
2018-07-13T07:46:22.263Z,987.18
2018-07-13T07:47:22.235Z,987.18
2018-07-13T07:48:22.215Z,987.16
2018-07-13T07:49:22.195Z,987.16
2018-07-13T07:50:22.190Z,987.16
2018-07-13T07:51:22.141Z,987.18
2018-07-13T07:52:22.136Z,987.18
2018-07-13T07:53:22.131Z,987.14
2018-07-13T07:54:22.080Z,987.16
2018-07-13T07:55:22.138Z,987.20
2018-07-13T07:56:22.204Z,987.21
2018-07-13T07:57:22.012Z,987.17
2018-07-13T07:58:21.981Z,987.17
2018-07-13T07:59:22.003Z,987.18
2018-07-13T08:00:22.018Z,987.18
2018-07-13T08:01:21.970Z,987.23
2018-07-13T08:02:22.010Z,987.22
2018-07-13T08:03:21.873Z,987.22
2018-07-13T08:04:21.855Z,987.22
2018-07-13T08:05:21.829Z,987.27
2018-07-13T08:06:21.917Z,987.22
2018-07-13T08:07:21.865Z,987.20
2018-07-13T08:08:21.777Z,987.21
2018-07-13T08:09:21.748Z,987.25
2018-07-13T08:10:21.753Z,987.18
2018-07-13T08:11:21.736Z,987.19
2018-07-13T08:12:21.678Z,987.15
2018-07-13T08:13:21.679Z,987.18
2018-07-13T08:14:21.651Z,987.16
2018-07-13T08:15:21.628Z,987.15
2018-07-13T08:16:21.618Z,987.18
2018-07-13T08:17:21.591Z,987.17
2018-07-13T08:18:21.564Z,987.20
2018-07-13T08:19:21.545Z,987.18
2018-07-13T08:20:21.520Z,987.21
2018-07-13T08:21:21.503Z,987.20
2018-07-13T08:22:21.492Z,987.21
2018-07-13T08:23:21.463Z,987.25
2018-07-13T08:24:21.452Z,987.26
2018-07-13T08:25:21.422Z,987.27
2018-07-13T08:26:21.403Z,987.19
2018-07-13T08:27:21.383Z,987.20
2018-07-13T08:28:21.349Z,987.25
2018-07-13T08:29:21.337Z,987.23
2018-07-13T08:30:21.330Z,987.17
2018-07-13T08:31:21.290Z,987.21
2018-07-13T08:32:21.285Z,987.17
2018-07-13T08:33:21.253Z,987.16
2018-07-13T08:34:21.240Z,987.17
2018-07-13T08:35:21.206Z,987.18
2018-07-13T08:36:21.206Z,987.19
2018-07-13T08:37:21.183Z,987.17
2018-07-13T08:38:21.171Z,987.14
2018-07-13T08:39:21.130Z,987.15
2018-07-13T08:40:21.125Z,987.15
2018-07-13T08:41:21.095Z,987.14
2018-07-13T08:42:21.096Z,987.16
2018-07-13T08:43:21.082Z,987.14
2018-07-13T08:44:21.053Z,987.16
2018-07-13T08:45:21.041Z,987.16
2018-07-13T08:46:20.999Z,987.14
2018-07-13T08:47:20.991Z,987.10
2018-07-13T08:48:20.953Z,987.14
2018-07-13T08:49:20.966Z,987.13
2018-07-13T08:50:20.952Z,987.13
2018-07-13T08:51:20.901Z,987.15
2018-07-13T08:52:20.882Z,987.16
2018-07-13T08:53:20.855Z,987.19
2018-07-13T08:54:20.842Z,987.21
2018-07-13T08:55:20.814Z,987.20
2018-07-13T08:56:20.829Z,987.18
2018-07-13T08:57:20.792Z,987.18
2018-07-13T08:58:20.765Z,987.19
2018-07-13T08:59:20.742Z,987.21
2018-07-13T09:00:20.722Z,987.19
2018-07-13T09:01:20.693Z,987.15
2018-07-13T09:02:20.694Z,987.15
2018-07-13T09:03:20.670Z,987.19
2018-07-13T09:04:21.638Z,987.17
2018-07-13T09:05:20.634Z,987.15
2018-07-13T09:06:20.636Z,987.18
2018-07-13T09:07:20.579Z,987.11
2018-07-13T09:08:20.626Z,987.16
2018-07-13T09:09:20.557Z,987.14
2018-07-13T09:10:20.519Z,987.13
2018-07-13T09:11:20.512Z,987.12
2018-07-13T09:12:20.499Z,987.14
2018-07-13T09:13:20.462Z,987.18
2018-07-13T09:14:20.445Z,987.17
2018-07-13T09:15:20.419Z,987.15
2018-07-13T09:16:20.449Z,987.13
2018-07-13T09:17:20.387Z,987.15
2018-07-13T09:18:20.468Z,987.14
2018-07-13T09:19:20.345Z,987.15
2018-07-13T09:20:20.346Z,987.11
2018-07-13T09:21:20.308Z,987.12
2018-07-13T09:22:20.295Z,987.10
2018-07-13T09:23:20.269Z,987.10
2018-07-13T09:24:20.254Z,987.13
2018-07-13T09:25:20.236Z,987.12
2018-07-13T09:26:20.229Z,987.12
2018-07-13T09:27:20.181Z,987.13
2018-07-13T09:28:20.175Z,987.16
2018-07-13T09:29:20.150Z,987.17
2018-07-13T09:30:20.167Z,987.20
2018-07-13T09:31:20.210Z,987.15
2018-07-13T09:32:20.096Z,987.17
2018-07-13T09:33:20.084Z,987.14
2018-07-13T09:34:20.096Z,987.13
2018-07-13T09:35:20.035Z,987.12
2018-07-13T09:36:20.055Z,987.13
2018-07-13T09:37:20.002Z,987.12
2018-07-13T09:38:20.037Z,987.17
2018-07-13T09:39:19.971Z,987.13
2018-07-13T09:40:19.984Z,987.11
2018-07-13T09:41:19.958Z,987.09
2018-07-13T09:42:20.001Z,987.11
2018-07-13T09:43:19.913Z,987.13
2018-07-13T09:44:19.857Z,987.12
2018-07-13T09:45:19.854Z,987.13
2018-07-13T09:46:19.844Z,987.10
2018-07-13T09:47:19.803Z,987.13
2018-07-13T09:48:19.810Z,987.17
2018-07-13T09:49:19.769Z,987.09
2018-07-13T09:50:19.744Z,987.19
2018-07-13T09:51:19.733Z,987.21
2018-07-13T09:52:19.726Z,987.16
2018-07-13T09:53:19.681Z,987.10
2018-07-13T09:54:19.667Z,987.14
2018-07-13T09:55:19.655Z,987.14
2018-07-13T09:56:19.632Z,987.11
2018-07-13T09:57:19.617Z,987.13
2018-07-13T09:58:19.601Z,987.11
2018-07-13T09:59:19.576Z,987.13
2018-07-13T10:00:19.556Z,987.17
2018-07-13T10:01:19.529Z,987.14
2018-07-13T10:02:19.527Z,987.19
2018-07-13T10:03:19.495Z,987.18
2018-07-13T10:04:19.480Z,987.17
2018-07-13T10:05:19.461Z,987.17
2018-07-13T10:06:19.463Z,987.13
2018-07-13T10:07:19.417Z,987.15
2018-07-13T10:08:19.411Z,987.12
2018-07-13T10:09:19.378Z,987.12
2018-07-13T10:10:19.351Z,987.06
2018-07-13T10:11:19.342Z,987.10
2018-07-13T10:12:19.318Z,987.05
2018-07-13T10:13:19.359Z,987.16
2018-07-13T10:14:19.283Z,987.11
2018-07-13T10:15:19.251Z,987.10
2018-07-13T10:16:19.231Z,987.08
2018-07-13T10:17:19.229Z,987.06
2018-07-13T10:18:19.190Z,987.08
2018-07-13T10:19:19.182Z,987.06
2018-07-13T10:20:19.157Z,987.06
2018-07-13T10:21:19.143Z,987.09
2018-07-13T10:22:19.115Z,987.11
2018-07-13T10:23:19.098Z,987.11
2018-07-13T10:24:19.121Z,987.10
2018-07-13T10:25:19.052Z,987.12
2018-07-13T10:26:19.037Z,987.08
2018-07-13T10:27:19.020Z,987.05
2018-07-13T10:28:19.000Z,987.06
2018-07-13T10:29:19.055Z,987.02
2018-07-13T10:30:18.962Z,987.04
2018-07-13T10:31:18.945Z,987.02
2018-07-13T10:32:18.925Z,987.10
2018-07-13T10:33:18.888Z,987.05
2018-07-13T10:34:18.882Z,987.08
2018-07-13T10:35:18.891Z,987.05
2018-07-13T10:36:18.836Z,987.06
2018-07-13T10:37:18.818Z,987.06
2018-07-13T10:38:18.793Z,987.06
2018-07-13T10:39:18.785Z,987.06
2018-07-13T10:40:18.756Z,987.03
2018-07-13T10:41:18.738Z,987.02
2018-07-13T10:42:18.735Z,987.07
2018-07-13T10:43:18.696Z,987.08
2018-07-13T10:44:18.685Z,987.02
2018-07-13T10:45:18.673Z,987.01
2018-07-13T10:46:18.625Z,987.04
2018-07-13T10:47:18.606Z,987.08
2018-07-13T10:48:18.593Z,987.00
2018-07-13T10:49:18.574Z,987.07
2018-07-13T10:50:18.563Z,987.05
2018-07-13T10:51:18.534Z,986.97
2018-07-13T10:52:18.511Z,986.99
2018-07-13T10:53:18.493Z,986.98
2018-07-13T10:54:18.492Z,987.01
2018-07-13T10:55:18.473Z,986.96
2018-07-13T10:56:18.432Z,986.93
2018-07-13T10:57:18.408Z,986.99
2018-07-13T10:58:18.387Z,986.94
2018-07-13T10:59:18.376Z,986.89
2018-07-13T11:00:18.344Z,986.90
2018-07-13T11:01:18.346Z,986.90
2018-07-13T11:02:18.319Z,986.91
2018-07-13T11:03:18.286Z,986.97
2018-07-13T11:04:18.268Z,986.92
2018-07-13T11:05:18.303Z,986.92
2018-07-13T11:06:18.227Z,986.81
2018-07-13T11:07:18.209Z,986.85
2018-07-13T11:08:18.188Z,986.86
2018-07-13T11:09:18.156Z,986.82
2018-07-13T11:10:18.151Z,986.75
2018-07-13T11:11:18.119Z,986.86
2018-07-13T11:12:18.142Z,986.76
2018-07-13T11:13:18.089Z,986.82
2018-07-13T11:14:18.080Z,986.78
2018-07-13T11:15:18.048Z,986.75
2018-07-13T11:16:18.040Z,986.72
2018-07-13T11:17:18.004Z,986.75
2018-07-13T11:18:17.974Z,986.72
2018-07-13T11:19:17.958Z,986.75
2018-07-13T11:20:17.953Z,986.73
2018-07-13T11:21:17.922Z,986.73
2018-07-13T11:22:17.905Z,986.70
2018-07-13T11:23:17.871Z,986.69
2018-07-13T11:24:17.926Z,986.72
2018-07-13T11:25:17.840Z,986.73
2018-07-13T11:26:17.815Z,986.66
2018-07-13T11:27:17.808Z,986.65
2018-07-13T11:28:17.776Z,986.66
2018-07-13T11:29:17.755Z,986.67
2018-07-13T11:30:17.728Z,986.67
2018-07-13T11:31:17.710Z,986.65
2018-07-13T11:32:17.687Z,986.59
2018-07-13T11:33:17.677Z,986.61
2018-07-13T11:34:17.645Z,986.64
2018-07-13T11:35:17.624Z,986.61
2018-07-13T11:36:17.609Z,986.59
2018-07-13T11:37:17.644Z,986.63
2018-07-13T11:38:17.568Z,986.60
2018-07-13T11:39:17.548Z,986.63
2018-07-13T11:40:17.533Z,986.63
2018-07-13T11:41:17.503Z,986.71
2018-07-13T11:42:17.489Z,986.65
2018-07-13T11:43:17.474Z,986.61
2018-07-13T11:44:17.519Z,986.65
2018-07-13T11:45:17.438Z,986.68
2018-07-13T11:46:17.422Z,986.65
2018-07-13T11:47:17.397Z,986.67
2018-07-13T11:48:17.361Z,986.70
2018-07-13T11:49:17.339Z,986.68
2018-07-13T11:50:17.312Z,986.63
2018-07-13T11:51:17.319Z,986.60
2018-07-13T11:52:17.278Z,986.65
2018-07-13T11:53:17.253Z,986.59
2018-07-13T11:54:17.236Z,986.58
2018-07-13T11:55:17.224Z,986.57
2018-07-13T11:56:17.196Z,986.56
2018-07-13T11:57:17.185Z,986.61
2018-07-13T11:58:17.151Z,986.56
2018-07-13T11:59:17.128Z,986.53
2018-07-13T12:00:17.121Z,986.54
2018-07-13T12:01:17.109Z,986.55
2018-07-13T12:02:17.077Z,986.56
2018-07-13T12:03:17.072Z,986.54
2018-07-13T12:04:17.038Z,986.52
2018-07-13T12:05:17.012Z,986.49
2018-07-13T12:06:17.008Z,986.52
2018-07-13T12:07:16.989Z,986.46
2018-07-13T12:08:16.987Z,986.49
2018-07-13T12:09:16.939Z,986.46
2018-07-13T12:10:16.923Z,986.47
2018-07-13T12:11:16.895Z,986.48
2018-07-13T12:12:16.918Z,986.45
2018-07-13T12:13:16.868Z,986.45
2018-07-13T12:14:16.839Z,986.44
2018-07-13T12:15:16.887Z,986.39
2018-07-13T12:16:16.821Z,986.40
2018-07-13T12:17:16.792Z,986.42
2018-07-13T12:18:16.753Z,986.39
2018-07-13T12:19:16.736Z,986.41
2018-07-13T12:20:16.763Z,986.43
2018-07-13T12:21:16.694Z,986.41
2018-07-13T12:22:16.673Z,986.43
2018-07-13T12:23:16.728Z,986.40
2018-07-13T12:24:16.624Z,986.44
2018-07-13T12:25:16.630Z,986.35
2018-07-13T12:26:16.589Z,986.37
2018-07-13T12:27:16.568Z,986.35
2018-07-13T12:28:16.528Z,986.28